sensor_id;sensor_type;location;lat;lon;timestamp;P1;durP1;ratioP1;P2;durP2;ratioP2
22983;SDS011;11658;48.908;9.140;2023-06-24T04:01:04;5.90;;;5.30;;
22983;SDS011;11658;48.908;9.140;2023-06-24T04:03:30;5.73;;;5.13;;
22983;SDS011;11658;48.908;9.140;2023-06-24T04:05:56;7.17;;;5.53;;
22983;SDS011;11658;48.908;9.140;2023-06-24T04:08:22;6.07;;;5.40;;
22983;SDS011;11658;48.908;9.140;2023-06-24T04:10:50;5.63;;;5.07;;
22983;SDS011;11658;48.908;9.140;2023-06-24T04:13:16;5.67;;;5.03;;
22983;SDS011;11658;48.908;9.140;2023-06-24T04:15:41;5.63;;;5.10;;
22983;SDS011;11658;48.908;9.140;2023-06-24T04:18:07;5.83;;;5.23;;
22983;SDS011;11658;48.908;9.140;2023-06-24T04:20:33;6.00;;;5.37;;
22983;SDS011;11658;48.908;9.140;2023-06-24T04:22:59;6.47;;;4.80;;
22983;SDS011;11658;48.908;9.140;2023-06-24T04:25:25;6.47;;;5.37;;
22983;SDS011;11658;48.908;9.140;2023-06-24T04:27:51;6.83;;;5.43;;
22983;SDS011;11658;48.908;9.140;2023-06-24T04:30:16;8.63;;;5.47;;
22983;SDS011;11658;48.908;9.140;2023-06-24T04:32:42;5.50;;;5.00;;
22983;SDS011;11658;48.908;9.140;2023-06-24T04:35:08;5.57;;;5.07;;
22983;SDS011;11658;48.908;9.140;2023-06-24T04:37:34;5.50;;;5.00;;
22983;SDS011;11658;48.908;9.140;2023-06-24T04:39:59;5.30;;;4.80;;
22983;SDS011;11658;48.908;9.140;2023-06-24T04:42:25;7.20;;;5.00;;
22983;SDS011;11658;48.908;9.140;2023-06-24T04:44:50;7.10;;;4.87;;
22983;SDS011;11658;48.908;9.140;2023-06-24T04:47:16;7.33;;;5.03;;
22983;SDS011;11658;48.908;9.140;2023-06-24T04:49:42;6.83;;;4.70;;
22983;SDS011;11658;48.908;9.140;2023-06-24T04:52:08;6.55;;;4.13;;
22983;SDS011;11658;48.908;9.140;2023-06-24T04:54:35;5.53;;;4.85;;
22983;SDS011;11658;48.908;9.140;2023-06-24T04:57:00;5.55;;;4.97;;
22983;SDS011;11658;48.908;9.140;2023-06-24T04:59:26;4.95;;;4.45;;
22983;SDS011;11658;48.908;9.140;2023-06-24T05:01:52;6.10;;;4.72;;
22983;SDS011;11658;48.908;9.140;2023-06-24T05:04:17;6.63;;;4.65;;
22983;SDS011;11658;48.908;9.140;2023-06-24T05:06:43;4.55;;;4.00;;
22983;SDS011;11658;48.908;9.140;2023-06-24T05:09:08;4.68;;;4.13;;
22983;SDS011;11658;48.908;9.140;2023-06-24T05:11:38;4.43;;;4.00;;
22983;SDS011;11658;48.908;9.140;2023-06-24T05:14:04;4.72;;;4.30;;
22983;SDS011;11658;48.908;9.140;2023-06-24T05:16:30;6.30;;;4.47;;
22983;SDS011;11658;48.908;9.140;2023-06-24T05:18:55;6.13;;;3.90;;
22983;SDS011;11658;48.908;9.140;2023-06-24T05:21:21;4.72;;;4.18;;
22983;SDS011;11658;48.908;9.140;2023-06-24T05:23:46;4.18;;;3.78;;
22983;SDS011;11658;48.908;9.140;2023-06-24T05:26:12;4.35;;;3.88;;
22983;SDS011;11658;48.908;9.140;2023-06-24T05:28:37;6.00;;;4.03;;
22983;SDS011;11658;48.908;9.140;2023-06-24T05:31:03;4.32;;;3.90;;
22983;SDS011;11658;48.908;9.140;2023-06-24T05:33:28;4.53;;;3.83;;
22983;SDS011;11658;48.908;9.140;2023-06-24T05:35:54;4.82;;;4.00;;
22983;SDS011;11658;48.908;9.140;2023-06-24T05:38:20;3.92;;;3.58;;
22983;SDS011;11658;48.908;9.140;2023-06-24T05:40:45;4.93;;;4.15;;
22983;SDS011;11658;48.908;9.140;2023-06-24T05:43:11;4.22;;;3.83;;
22983;SDS011;11658;48.908;9.140;2023-06-24T05:45:36;4.88;;;4.30;;
22983;SDS011;11658;48.908;9.140;2023-06-24T05:48:02;6.30;;;4.60;;
22983;SDS011;11658;48.908;9.140;2023-06-24T05:50:28;4.85;;;4.40;;
22983;SDS011;11658;48.908;9.140;2023-06-24T05:52:54;4.50;;;4.10;;
22983;SDS011;11658;48.908;9.140;2023-06-24T05:55:19;4.30;;;3.92;;
22983;SDS011;11658;48.908;9.140;2023-06-24T05:57:45;4.43;;;4.03;;
22983;SDS011;11658;48.908;9.140;2023-06-24T06:00:11;4.78;;;4.28;;
22983;SDS011;11658;48.908;9.140;2023-06-24T06:02:37;4.68;;;4.00;;
22983;SDS011;11658;48.908;9.140;2023-06-24T06:05:02;4.35;;;3.90;;
22983;SDS011;11658;48.908;9.140;2023-06-24T06:07:28;4.47;;;4.00;;
22983;SDS011;11658;48.908;9.140;2023-06-24T06:09:54;4.47;;;3.75;;
22983;SDS011;11658;48.908;9.140;2023-06-24T06:12:20;4.88;;;3.70;;
22983;SDS011;11658;48.908;9.140;2023-06-24T06:14:46;4.43;;;4.03;;
22983;SDS011;11658;48.908;9.140;2023-06-24T06:17:12;4.40;;;4.00;;
22983;SDS011;11658;48.908;9.140;2023-06-24T06:19:39;4.68;;;4.15;;
22983;SDS011;11658;48.908;9.140;2023-06-24T06:22:06;5.15;;;4.30;;
22983;SDS011;11658;48.908;9.140;2023-06-24T06:24:32;4.55;;;4.03;;
22983;SDS011;11658;48.908;9.140;2023-06-24T06:26:58;4.75;;;4.25;;
22983;SDS011;11658;48.908;9.140;2023-06-24T06:29:24;4.40;;;3.90;;
22983;SDS011;11658;48.908;9.140;2023-06-24T06:31:49;4.03;;;3.72;;
22983;SDS011;11658;48.908;9.140;2023-06-24T06:34:15;5.28;;;4.10;;
22983;SDS011;11658;48.908;9.140;2023-06-24T06:36:40;4.50;;;4.10;;
22983;SDS011;11658;48.908;9.140;2023-06-24T06:39:06;4.43;;;4.03;;
22983;SDS011;11658;48.908;9.140;2023-06-24T06:41:32;4.28;;;3.88;;
22983;SDS011;11658;48.908;9.140;2023-06-24T06:43:57;4.38;;;3.53;;
22983;SDS011;11658;48.908;9.140;2023-06-24T06:46:23;4.95;;;3.80;;
22983;SDS011;11658;48.908;9.140;2023-06-24T06:48:48;4.32;;;3.92;;
22983;SDS011;11658;48.908;9.140;2023-06-24T06:51:14;3.80;;;3.38;;
22983;SDS011;11658;48.908;9.140;2023-06-24T06:53:39;6.03;;;3.58;;
22983;SDS011;11658;48.908;9.140;2023-06-24T06:56:05;3.85;;;3.47;;
22983;SDS011;11658;48.908;9.140;2023-06-24T06:58:31;6.13;;;3.60;;
22983;SDS011;11658;48.908;9.140;2023-06-24T07:00:56;4.25;;;3.80;;
22983;SDS011;11658;48.908;9.140;2023-06-24T07:03:26;4.70;;;3.50;;
22983;SDS011;11658;48.908;9.140;2023-06-24T07:05:53;4.03;;;3.63;;
22983;SDS011;11658;48.908;9.140;2023-06-24T07:08:19;4.45;;;4.00;;
22983;SDS011;11658;48.908;9.140;2023-06-24T07:10:45;5.80;;;3.83;;
22983;SDS011;11658;48.908;9.140;2023-06-24T07:13:11;4.28;;;3.83;;
22983;SDS011;11658;48.908;9.140;2023-06-24T07:15:36;4.50;;;3.67;;
22983;SDS011;11658;48.908;9.140;2023-06-24T07:18:02;4.00;;;3.60;;
22983;SDS011;11658;48.908;9.140;2023-06-24T07:20:27;4.40;;;3.88;;
22983;SDS011;11658;48.908;9.140;2023-06-24T07:22:53;4.80;;;3.80;;
22983;SDS011;11658;48.908;9.140;2023-06-24T07:25:18;4.07;;;3.50;;
22983;SDS011;11658;48.908;9.140;2023-06-24T07:27:44;4.78;;;3.90;;
22983;SDS011;11658;48.908;9.140;2023-06-24T07:30:09;3.97;;;3.58;;
22983;SDS011;11658;48.908;9.140;2023-06-24T07:32:35;5.57;;;3.60;;
22983;SDS011;11658;48.908;9.140;2023-06-24T07:35:01;4.25;;;3.60;;
22983;SDS011;11658;48.908;9.140;2023-06-24T07:37:26;4.65;;;3.63;;
22983;SDS011;11658;48.908;9.140;2023-06-24T07:39:52;4.05;;;3.65;;
22983;SDS011;11658;48.908;9.140;2023-06-24T07:42:17;4.05;;;3.22;;
22983;SDS011;11658;48.908;9.140;2023-06-24T07:44:46;4.25;;;3.85;;
22983;SDS011;11658;48.908;9.140;2023-06-24T07:47:13;4.80;;;3.50;;
22983;SDS011;11658;48.908;9.140;2023-06-24T07:49:39;5.15;;;3.45;;
22983;SDS011;11658;48.908;9.140;2023-06-24T07:52:04;3.97;;;3.58;;
22983;SDS011;11658;48.908;9.140;2023-06-24T07:54:31;4.63;;;3.80;;
22983;SDS011;11658;48.908;9.140;2023-06-24T07:56:56;6.03;;;3.85;;
22983;SDS011;11658;48.908;9.140;2023-06-24T07:59:22;4.03;;;3.58;;
22983;SDS011;11658;48.908;9.140;2023-06-24T08:01:48;4.18;;;3.38;;
22983;SDS011;11658;48.908;9.140;2023-06-24T08:04:14;4.53;;;3.42;;
22983;SDS011;11658;48.908;9.140;2023-06-24T08:06:40;4.90;;;3.53;;
22983;SDS011;11658;48.908;9.140;2023-06-24T08:09:06;3.67;;;3.38;;
22983;SDS011;11658;48.908;9.140;2023-06-24T08:11:31;3.85;;;3.35;;
22983;SDS011;11658;48.908;9.140;2023-06-24T08:13:57;4.32;;;3.40;;
22983;SDS011;11658;48.908;9.140;2023-06-24T08:16:23;4.22;;;3.83;;
22983;SDS011;11658;48.908;9.140;2023-06-24T08:18:48;3.80;;;3.42;;
22983;SDS011;11658;48.908;9.140;2023-06-24T08:21:14;3.53;;;3.22;;
22983;SDS011;11658;48.908;9.140;2023-06-24T08:23:40;3.38;;;3.00;;
22983;SDS011;11658;48.908;9.140;2023-06-24T08:26:06;3.92;;;3.30;;
22983;SDS011;11658;48.908;9.140;2023-06-24T08:28:32;3.78;;;3.47;;
22983;SDS011;11658;48.908;9.140;2023-06-24T08:30:58;3.92;;;3.47;;
22983;SDS011;11658;48.908;9.140;2023-06-24T08:33:23;3.70;;;3.30;;
22983;SDS011;11658;48.908;9.140;2023-06-24T08:35:49;4.50;;;3.20;;
22983;SDS011;11658;48.908;9.140;2023-06-24T08:38:15;6.25;;;3.45;;
22983;SDS011;11658;48.908;9.140;2023-06-24T08:40:40;4.72;;;2.92;;
22983;SDS011;11658;48.908;9.140;2023-06-24T08:43:08;3.50;;;3.20;;
22983;SDS011;11658;48.908;9.140;2023-06-24T08:45:34;3.17;;;2.88;;
22983;SDS011;11658;48.908;9.140;2023-06-24T08:48:00;3.20;;;2.90;;
22983;SDS011;11658;48.908;9.140;2023-06-24T08:50:27;3.55;;;2.70;;
22983;SDS011;11658;48.908;9.140;2023-06-24T08:52:59;3.92;;;2.90;;
22983;SDS011;11658;48.908;9.140;2023-06-24T08:55:31;3.55;;;3.20;;
22983;SDS011;11658;48.908;9.140;2023-06-24T08:58:01;3.97;;;3.47;;
22983;SDS011;11658;48.908;9.140;2023-06-24T09:00:27;4.22;;;3.03;;
22983;SDS011;11658;48.908;9.140;2023-06-24T09:02:53;4.43;;;3.10;;
22983;SDS011;11658;48.908;9.140;2023-06-24T09:05:19;3.78;;;2.97;;
22983;SDS011;11658;48.908;9.140;2023-06-24T09:07:44;3.75;;;3.20;;
22983;SDS011;11658;48.908;9.140;2023-06-24T09:10:10;3.95;;;2.95;;
22983;SDS011;11658;48.908;9.140;2023-06-24T09:12:54;3.50;;;3.13;;
22983;SDS011;11658;48.908;9.140;2023-06-24T09:15:20;3.65;;;3.03;;
22983;SDS011;11658;48.908;9.140;2023-06-24T09:17:45;3.40;;;3.10;;
22983;SDS011;11658;48.908;9.140;2023-06-24T09:20:11;4.57;;;3.50;;
22983;SDS011;11658;48.908;9.140;2023-06-24T09:22:39;3.60;;;3.03;;
22983;SDS011;11658;48.908;9.140;2023-06-24T09:25:06;3.30;;;3.00;;
22983;SDS011;11658;48.908;9.140;2023-06-24T09:27:32;2.83;;;2.63;;
22983;SDS011;11658;48.908;9.140;2023-06-24T09:29:58;3.90;;;2.83;;
22983;SDS011;11658;48.908;9.140;2023-06-24T09:32:30;3.70;;;2.80;;
22983;SDS011;11658;48.908;9.140;2023-06-24T09:34:56;3.97;;;2.83;;
22983;SDS011;11658;48.908;9.140;2023-06-24T09:37:22;3.22;;;2.88;;
22983;SDS011;11658;48.908;9.140;2023-06-24T09:39:49;4.10;;;3.08;;
22983;SDS011;11658;48.908;9.140;2023-06-24T09:42:15;3.90;;;2.92;;
22983;SDS011;11658;48.908;9.140;2023-06-24T09:44:45;3.40;;;3.00;;
22983;SDS011;11658;48.908;9.140;2023-06-24T09:47:20;2.90;;;2.70;;
22983;SDS011;11658;48.908;9.140;2023-06-24T09:49:50;3.22;;;2.70;;
22983;SDS011;11658;48.908;9.140;2023-06-24T09:52:16;4.03;;;2.72;;
22983;SDS011;11658;48.908;9.140;2023-06-24T09:54:45;4.03;;;2.75;;
22983;SDS011;11658;48.908;9.140;2023-06-24T09:57:14;4.07;;;2.72;;
22983;SDS011;11658;48.908;9.140;2023-06-24T09:59:45;4.32;;;2.58;;
22983;SDS011;11658;48.908;9.140;2023-06-24T10:02:12;3.92;;;2.88;;
22983;SDS011;11658;48.908;9.140;2023-06-24T10:04:40;2.80;;;2.60;;
22983;SDS011;11658;48.908;9.140;2023-06-24T10:07:07;4.18;;;2.40;;
22983;SDS011;11658;48.908;9.140;2023-06-24T10:09:32;2.60;;;2.40;;
22983;SDS011;11658;48.908;9.140;2023-06-24T10:11:58;2.60;;;2.33;;
22983;SDS011;11658;48.908;9.140;2023-06-24T10:14:25;2.35;;;2.15;;
22983;SDS011;11658;48.908;9.140;2023-06-24T10:16:50;4.00;;;2.28;;
22983;SDS011;11658;48.908;9.140;2023-06-24T10:19:19;2.20;;;2.00;;
22983;SDS011;11658;48.908;9.140;2023-06-24T10:21:58;3.45;;;2.30;;
22983;SDS011;11658;48.908;9.140;2023-06-24T10:24:28;2.60;;;2.40;;
22983;SDS011;11658;48.908;9.140;2023-06-24T10:26:54;5.82;;;2.63;;
22983;SDS011;11658;48.908;9.140;2023-06-24T10:29:34;2.70;;;2.50;;
22983;SDS011;11658;48.908;9.140;2023-06-24T10:37:18;3.20;;;2.60;;
22983;SDS011;11658;48.908;9.140;2023-06-24T10:39:54;2.58;;;2.38;;
22983;SDS011;11658;48.908;9.140;2023-06-24T10:44:55;5.32;;;2.80;;
22983;SDS011;11658;48.908;9.140;2023-06-24T10:47:25;3.13;;;2.53;;
22983;SDS011;11658;48.908;9.140;2023-06-24T10:49:52;3.75;;;2.75;;
22983;SDS011;11658;48.908;9.140;2023-06-24T10:52:18;3.53;;;2.75;;
22983;SDS011;11658;48.908;9.140;2023-06-24T10:54:46;2.65;;;2.45;;
22983;SDS011;11658;48.908;9.140;2023-06-24T10:57:12;3.40;;;2.60;;
22983;SDS011;11658;48.908;9.140;2023-06-24T10:59:41;2.88;;;2.65;;
22983;SDS011;11658;48.908;9.140;2023-06-24T11:02:13;3.63;;;2.80;;
22983;SDS011;11658;48.908;9.140;2023-06-24T11:07:12;3.45;;;2.80;;
22983;SDS011;11658;48.908;9.140;2023-06-24T11:09:38;2.80;;;2.47;;
22983;SDS011;11658;48.908;9.140;2023-06-24T11:12:05;2.88;;;2.50;;
22983;SDS011;11658;48.908;9.140;2023-06-24T11:14:33;3.50;;;2.70;;
22983;SDS011;11658;48.908;9.140;2023-06-24T11:17:02;3.45;;;2.50;;
22983;SDS011;11658;48.908;9.140;2023-06-24T11:19:32;2.72;;;2.35;;
22983;SDS011;11658;48.908;9.140;2023-06-24T11:22:01;3.75;;;2.50;;
22983;SDS011;11658;48.908;9.140;2023-06-24T11:24:29;2.92;;;2.60;;
22983;SDS011;11658;48.908;9.140;2023-06-24T11:26:55;2.70;;;2.35;;
22983;SDS011;11658;48.908;9.140;2023-06-24T11:29:21;2.70;;;2.40;;
22983;SDS011;11658;48.908;9.140;2023-06-24T11:31:50;3.30;;;2.67;;
22983;SDS011;11658;48.908;9.140;2023-06-24T11:34:16;3.22;;;2.67;;
22983;SDS011;11658;48.908;9.140;2023-06-24T11:36:42;3.00;;;2.28;;
22983;SDS011;11658;48.908;9.140;2023-06-24T11:39:08;2.33;;;2.13;;
22983;SDS011;11658;48.908;9.140;2023-06-24T11:41:33;3.45;;;2.85;;
22983;SDS011;11658;48.908;9.140;2023-06-24T11:43:59;2.60;;;2.40;;
22983;SDS011;11658;48.908;9.140;2023-06-24T11:49:07;2.67;;;2.40;;
22983;SDS011;11658;48.908;9.140;2023-06-24T11:51:34;2.50;;;2.30;;
22983;SDS011;11658;48.908;9.140;2023-06-24T11:54:01;2.97;;;2.67;;
22983;SDS011;11658;48.908;9.140;2023-06-24T11:56:34;3.67;;;2.90;;
22983;SDS011;11658;48.908;9.140;2023-06-24T11:59:04;2.85;;;2.58;;
22983;SDS011;11658;48.908;9.140;2023-06-24T12:01:54;2.90;;;2.60;;
22983;SDS011;11658;48.908;9.140;2023-06-24T12:04:21;2.65;;;2.45;;
22983;SDS011;11658;48.908;9.140;2023-06-24T12:06:51;2.53;;;2.30;;
22983;SDS011;11658;48.908;9.140;2023-06-24T12:09:17;2.60;;;2.40;;
22983;SDS011;11658;48.908;9.140;2023-06-24T12:11:43;2.60;;;2.40;;
22983;SDS011;11658;48.908;9.140;2023-06-24T12:14:08;3.05;;;2.40;;
22983;SDS011;11658;48.908;9.140;2023-06-24T12:16:34;3.00;;;2.78;;
22983;SDS011;11658;48.908;9.140;2023-06-24T12:19:00;3.10;;;2.80;;
22983;SDS011;11658;48.908;9.140;2023-06-24T12:21:25;2.42;;;2.22;;
22983;SDS011;11658;48.908;9.140;2023-06-24T12:23:51;2.55;;;2.33;;
22983;SDS011;11658;48.908;9.140;2023-06-24T12:26:16;2.80;;;2.40;;
22983;SDS011;11658;48.908;9.140;2023-06-24T12:28:42;2.75;;;2.17;;
22983;SDS011;11658;48.908;9.140;2023-06-24T12:31:08;2.83;;;2.63;;
22983;SDS011;11658;48.908;9.140;2023-06-24T12:33:33;3.00;;;2.58;;
22983;SDS011;11658;48.908;9.140;2023-06-24T12:35:59;3.25;;;2.78;;
22983;SDS011;11658;48.908;9.140;2023-06-24T12:38:25;2.75;;;2.55;;
22983;SDS011;11658;48.908;9.140;2023-06-24T12:40:50;2.67;;;2.47;;
22983;SDS011;11658;48.908;9.140;2023-06-24T12:43:17;2.67;;;2.42;;
22983;SDS011;11658;48.908;9.140;2023-06-24T12:45:43;2.78;;;2.58;;
22983;SDS011;11658;48.908;9.140;2023-06-24T12:48:09;3.08;;;2.63;;
22983;SDS011;11658;48.908;9.140;2023-06-24T12:50:35;2.90;;;2.42;;
22983;SDS011;11658;48.908;9.140;2023-06-24T12:53:01;2.53;;;2.33;;
22983;SDS011;11658;48.908;9.140;2023-06-24T12:55:27;3.30;;;2.50;;
22983;SDS011;11658;48.908;9.140;2023-06-24T12:57:53;3.03;;;2.55;;
22983;SDS011;11658;48.908;9.140;2023-06-24T13:00:19;2.90;;;2.60;;
22983;SDS011;11658;48.908;9.140;2023-06-24T13:02:46;2.83;;;2.40;;
22983;SDS011;11658;48.908;9.140;2023-06-24T13:05:12;2.88;;;2.67;;
22983;SDS011;11658;48.908;9.140;2023-06-24T13:07:38;3.00;;;2.70;;
22983;SDS011;11658;48.908;9.140;2023-06-24T13:10:03;2.60;;;2.40;;
22983;SDS011;11658;48.908;9.140;2023-06-24T13:12:31;2.70;;;2.50;;
22983;SDS011;11658;48.908;9.140;2023-06-24T13:14:57;3.17;;;2.70;;
22983;SDS011;11658;48.908;9.140;2023-06-24T13:17:23;3.10;;;2.80;;
22983;SDS011;11658;48.908;9.140;2023-06-24T13:19:49;3.38;;;2.30;;
22983;SDS011;11658;48.908;9.140;2023-06-24T13:22:15;3.20;;;2.65;;
22983;SDS011;11658;48.908;9.140;2023-06-24T13:24:41;2.90;;;2.60;;
22983;SDS011;11658;48.908;9.140;2023-06-24T13:27:07;2.70;;;2.50;;
22983;SDS011;11658;48.908;9.140;2023-06-24T13:29:32;2.72;;;2.47;;
22983;SDS011;11658;48.908;9.140;2023-06-24T13:31:58;4.05;;;2.90;;
22983;SDS011;11658;48.908;9.140;2023-06-24T13:34:24;3.45;;;2.65;;
22983;SDS011;11658;48.908;9.140;2023-06-24T13:36:50;2.78;;;2.50;;
22983;SDS011;11658;48.908;9.140;2023-06-24T13:39:15;3.13;;;2.83;;
22983;SDS011;11658;48.908;9.140;2023-06-24T13:41:42;3.35;;;2.40;;
22983;SDS011;11658;48.908;9.140;2023-06-24T13:44:09;3.30;;;2.50;;
22983;SDS011;11658;48.908;9.140;2023-06-24T13:46:35;2.70;;;2.50;;
22983;SDS011;11658;48.908;9.140;2023-06-24T13:49:01;2.80;;;2.60;;
22983;SDS011;11658;48.908;9.140;2023-06-24T13:51:27;2.95;;;2.70;;
22983;SDS011;11658;48.908;9.140;2023-06-24T13:53:54;2.90;;;2.40;;
22983;SDS011;11658;48.908;9.140;2023-06-24T13:56:20;3.75;;;2.47;;
22983;SDS011;11658;48.908;9.140;2023-06-24T13:58:49;2.70;;;2.50;;
22983;SDS011;11658;48.908;9.140;2023-06-24T14:01:16;5.25;;;3.00;;
22983;SDS011;11658;48.908;9.140;2023-06-24T14:03:42;2.90;;;2.60;;
22983;SDS011;11658;48.908;9.140;2023-06-24T14:06:09;2.78;;;2.50;;
22983;SDS011;11658;48.908;9.140;2023-06-24T14:08:35;3.15;;;2.72;;
22983;SDS011;11658;48.908;9.140;2023-06-24T14:11:01;2.78;;;2.40;;
22983;SDS011;11658;48.908;9.140;2023-06-24T14:13:27;3.53;;;2.88;;
22983;SDS011;11658;48.908;9.140;2023-06-24T14:15:54;2.47;;;2.28;;
22983;SDS011;11658;48.908;9.140;2023-06-24T14:18:20;2.97;;;2.67;;
22983;SDS011;11658;48.908;9.140;2023-06-24T14:20:46;3.63;;;2.92;;
22983;SDS011;11658;48.908;9.140;2023-06-24T14:23:12;2.53;;;2.20;;
22983;SDS011;11658;48.908;9.140;2023-06-24T14:25:37;2.95;;;2.28;;
22983;SDS011;11658;48.908;9.140;2023-06-24T14:28:04;2.53;;;2.33;;
22983;SDS011;11658;48.908;9.140;2023-06-24T14:30:30;2.80;;;2.50;;
22983;SDS011;11658;48.908;9.140;2023-06-24T14:32:55;3.65;;;2.90;;
22983;SDS011;11658;48.908;9.140;2023-06-24T14:35:21;3.17;;;2.65;;
22983;SDS011;11658;48.908;9.140;2023-06-24T14:37:47;2.72;;;2.50;;
22983;SDS011;11658;48.908;9.140;2023-06-24T14:40:12;2.90;;;2.63;;
22983;SDS011;11658;48.908;9.140;2023-06-24T14:42:38;2.63;;;2.33;;
22983;SDS011;11658;48.908;9.140;2023-06-24T14:45:03;2.58;;;2.35;;
22983;SDS011;11658;48.908;9.140;2023-06-24T14:47:29;3.15;;;2.80;;
22983;SDS011;11658;48.908;9.140;2023-06-24T14:49:56;3.00;;;2.70;;
22983;SDS011;11658;48.908;9.140;2023-06-24T14:52:21;2.65;;;2.45;;
22983;SDS011;11658;48.908;9.140;2023-06-24T14:54:47;2.60;;;2.30;;
22983;SDS011;11658;48.908;9.140;2023-06-24T14:57:13;2.60;;;2.40;;
22983;SDS011;11658;48.908;9.140;2023-06-24T14:59:40;2.38;;;2.17;;
22983;SDS011;11658;48.908;9.140;2023-06-24T15:02:06;2.40;;;2.20;;
22983;SDS011;11658;48.908;9.140;2023-06-24T15:04:32;2.92;;;2.50;;
22983;SDS011;11658;48.908;9.140;2023-06-24T15:06:58;2.58;;;2.10;;
22983;SDS011;11658;48.908;9.140;2023-06-24T15:09:25;2.72;;;2.53;;
22983;SDS011;11658;48.908;9.140;2023-06-24T15:11:51;2.40;;;2.20;;
22983;SDS011;11658;48.908;9.140;2023-06-24T15:14:17;2.53;;;2.33;;
22983;SDS011;11658;48.908;9.140;2023-06-24T15:16:43;2.50;;;2.28;;
22983;SDS011;11658;48.908;9.140;2023-06-24T15:19:08;2.97;;;2.40;;
22983;SDS011;11658;48.908;9.140;2023-06-24T15:21:34;2.63;;;2.42;;
22983;SDS011;11658;48.908;9.140;2023-06-24T15:23:59;2.70;;;2.50;;
22983;SDS011;11658;48.908;9.140;2023-06-24T15:26:25;2.60;;;2.38;;
22983;SDS011;11658;48.908;9.140;2023-06-24T15:28:50;2.97;;;2.67;;
22983;SDS011;11658;48.908;9.140;2023-06-24T15:31:16;3.03;;;2.72;;
22983;SDS011;11658;48.908;9.140;2023-06-24T15:33:42;2.47;;;2.28;;
22983;SDS011;11658;48.908;9.140;2023-06-24T15:36:07;2.65;;;2.45;;
22983;SDS011;11658;48.908;9.140;2023-06-24T15:38:33;3.05;;;2.75;;
22983;SDS011;11658;48.908;9.140;2023-06-24T15:40:59;3.92;;;2.60;;
22983;SDS011;11658;48.908;9.140;2023-06-24T15:43:25;2.90;;;2.50;;
22983;SDS011;11658;48.908;9.140;2023-06-24T15:45:50;2.78;;;2.35;;
22983;SDS011;11658;48.908;9.140;2023-06-24T15:48:16;2.45;;;2.25;;
22983;SDS011;11658;48.908;9.140;2023-06-24T15:50:42;3.03;;;2.50;;
22983;SDS011;11658;48.908;9.140;2023-06-24T15:53:07;2.50;;;2.30;;
22983;SDS011;11658;48.908;9.140;2023-06-24T15:55:33;2.70;;;2.50;;
22983;SDS011;11658;48.908;9.140;2023-06-24T15:57:58;2.85;;;2.47;;
22983;SDS011;11658;48.908;9.140;2023-06-24T16:00:24;2.78;;;2.42;;
22983;SDS011;11658;48.908;9.140;2023-06-24T16:02:50;3.10;;;2.83;;
22983;SDS011;11658;48.908;9.140;2023-06-24T16:05:15;2.50;;;2.30;;
22983;SDS011;11658;48.908;9.140;2023-06-24T16:07:41;2.28;;;2.08;;
22983;SDS011;11658;48.908;9.140;2023-06-24T16:10:06;2.90;;;2.20;;
22983;SDS011;11658;48.908;9.140;2023-06-24T16:12:32;5.13;;;2.45;;
22983;SDS011;11658;48.908;9.140;2023-06-24T16:14:58;3.25;;;2.30;;
22983;SDS011;11658;48.908;9.140;2023-06-24T16:17:24;2.40;;;2.20;;
22983;SDS011;11658;48.908;9.140;2023-06-24T16:19:49;2.28;;;2.08;;
22983;SDS011;11658;48.908;9.140;2023-06-24T16:22:15;2.60;;;2.40;;
22983;SDS011;11658;48.908;9.140;2023-06-24T16:24:40;2.53;;;2.30;;
22983;SDS011;11658;48.908;9.140;2023-06-24T16:27:06;3.45;;;2.38;;
22983;SDS011;11658;48.908;9.140;2023-06-24T16:29:32;2.38;;;2.17;;
22983;SDS011;11658;48.908;9.140;2023-06-24T16:31:57;2.60;;;2.40;;
22983;SDS011;11658;48.908;9.140;2023-06-24T16:34:23;2.50;;;2.30;;
22983;SDS011;11658;48.908;9.140;2023-06-24T16:36:48;2.33;;;2.13;;
22983;SDS011;11658;48.908;9.140;2023-06-24T16:39:14;2.20;;;2.00;;
22983;SDS011;11658;48.908;9.140;2023-06-24T16:41:40;2.08;;;1.88;;
22983;SDS011;11658;48.908;9.140;2023-06-24T16:44:05;2.63;;;1.90;;
22983;SDS011;11658;48.908;9.140;2023-06-24T16:46:31;2.30;;;2.10;;
22983;SDS011;11658;48.908;9.140;2023-06-24T16:48:57;2.47;;;2.28;;
22983;SDS011;11658;48.908;9.140;2023-06-24T16:51:24;3.00;;;2.22;;
22983;SDS011;11658;48.908;9.140;2023-06-24T16:53:50;2.40;;;2.20;;
22983;SDS011;11658;48.908;9.140;2023-06-24T16:56:15;2.50;;;2.30;;
22983;SDS011;11658;48.908;9.140;2023-06-24T16:58:41;3.05;;;2.40;;
22983;SDS011;11658;48.908;9.140;2023-06-24T17:01:07;2.22;;;1.95;;
22983;SDS011;11658;48.908;9.140;2023-06-24T17:03:32;2.35;;;1.90;;
22983;SDS011;11658;48.908;9.140;2023-06-24T17:05:58;3.67;;;1.88;;
22983;SDS011;11658;48.908;9.140;2023-06-24T17:08:23;2.20;;;2.00;;
22983;SDS011;11658;48.908;9.140;2023-06-24T17:10:49;2.08;;;1.92;;
22983;SDS011;11658;48.908;9.140;2023-06-24T17:13:14;2.03;;;1.83;;
22983;SDS011;11658;48.908;9.140;2023-06-24T17:15:40;2.20;;;2.00;;
22983;SDS011;11658;48.908;9.140;2023-06-24T17:18:06;2.30;;;2.10;;
22983;SDS011;11658;48.908;9.140;2023-06-24T17:20:31;2.47;;;2.20;;
22983;SDS011;11658;48.908;9.140;2023-06-24T17:22:57;2.00;;;1.80;;
22983;SDS011;11658;48.908;9.140;2023-06-24T17:25:22;2.25;;;2.05;;
22983;SDS011;11658;48.908;9.140;2023-06-24T17:27:48;2.67;;;2.13;;
22983;SDS011;11658;48.908;9.140;2023-06-24T17:30:14;3.35;;;2.00;;
22983;SDS011;11658;48.908;9.140;2023-06-24T17:32:42;2.83;;;2.17;;
22983;SDS011;11658;48.908;9.140;2023-06-24T17:35:08;2.50;;;2.30;;
22983;SDS011;11658;48.908;9.140;2023-06-24T17:37:33;2.28;;;2.08;;
22983;SDS011;11658;48.908;9.140;2023-06-24T17:39:59;5.25;;;2.33;;
22983;SDS011;11658;48.908;9.140;2023-06-24T17:42:25;3.08;;;2.60;;
22983;SDS011;11658;48.908;9.140;2023-06-24T17:44:50;2.70;;;2.45;;
22983;SDS011;11658;48.908;9.140;2023-06-24T17:47:16;2.67;;;2.45;;
22983;SDS011;11658;48.908;9.140;2023-06-24T17:49:42;4.38;;;2.20;;
22983;SDS011;11658;48.908;9.140;2023-06-24T17:52:08;2.47;;;2.28;;
22983;SDS011;11658;48.908;9.140;2023-06-24T17:54:34;2.40;;;2.20;;
22983;SDS011;11658;48.908;9.140;2023-06-24T17:56:59;2.45;;;2.25;;
22983;SDS011;11658;48.908;9.140;2023-06-24T17:59:25;2.60;;;2.40;;
22983;SDS011;11658;48.908;9.140;2023-06-24T18:01:50;2.67;;;2.42;;
22983;SDS011;11658;48.908;9.140;2023-06-24T18:04:16;2.58;;;2.38;;
22983;SDS011;11658;48.908;9.140;2023-06-24T18:06:41;3.03;;;2.70;;
22983;SDS011;11658;48.908;9.140;2023-06-24T18:09:08;2.58;;;2.38;;
22983;SDS011;11658;48.908;9.140;2023-06-24T18:11:34;3.10;;;2.60;;
22983;SDS011;11658;48.908;9.140;2023-06-24T18:14:00;2.50;;;2.22;;
22983;SDS011;11658;48.908;9.140;2023-06-24T18:16:25;3.10;;;2.80;;
22983;SDS011;11658;48.908;9.140;2023-06-24T18:18:51;3.00;;;2.70;;
22983;SDS011;11658;48.908;9.140;2023-06-24T18:21:16;4.18;;;2.70;;
22983;SDS011;11658;48.908;9.140;2023-06-24T18:23:42;3.20;;;2.88;;
22983;SDS011;11658;48.908;9.140;2023-06-24T18:26:09;4.10;;;2.80;;
22983;SDS011;11658;48.908;9.140;2023-06-24T18:28:37;2.90;;;2.60;;
22983;SDS011;11658;48.908;9.140;2023-06-24T18:31:03;3.45;;;2.40;;
22983;SDS011;11658;48.908;9.140;2023-06-24T18:33:29;3.97;;;2.70;;
22983;SDS011;11658;48.908;9.140;2023-06-24T18:35:54;4.53;;;2.72;;
22983;SDS011;11658;48.908;9.140;2023-06-24T18:38:20;2.53;;;2.33;;
22983;SDS011;11658;48.908;9.140;2023-06-24T18:40:46;4.07;;;2.92;;
22983;SDS011;11658;48.908;9.140;2023-06-24T18:43:11;3.08;;;2.30;;
22983;SDS011;11658;48.908;9.140;2023-06-24T18:45:37;2.80;;;2.60;;
22983;SDS011;11658;48.908;9.140;2023-06-24T18:48:02;3.42;;;2.70;;
22983;SDS011;11658;48.908;9.140;2023-06-24T18:50:28;3.08;;;2.80;;
22983;SDS011;11658;48.908;9.140;2023-06-24T18:52:54;3.63;;;2.47;;
22983;SDS011;11658;48.908;9.140;2023-06-24T18:55:19;3.75;;;3.30;;